Time,TemperatureF,DewpointF,PressureIn,WindDirection,WindDirectionDegrees,WindSpeedMPH,WindSpeedGustMPH,Humidity,HourlyPrecipIn,Conditions,Clouds,dailyrainin,SoftwareType,DateUTC
2013-06-10 00:01:00,70.0,68.5,30.06,SSE,167,0.0,5.2,95,0.01,,OVC003,0.00,VWS V14.01,2013-06-10 04:01:00,
2013-06-10 00:02:00,70.0,68.5,30.06,SSE,167,3.9,5.2,95,0.00,,OVC003,0.00,VWS V14.01,2013-06-10 04:02:00,
2013-06-10 00:03:00,70.1,68.6,30.06,SSE,167,3.9,3.9,95,0.00,,OVC003,0.00,VWS V14.01,2013-06-10 04:03:00,
2013-06-10 00:04:00,70.0,68.5,30.06,SSE,167,1.3,3.9,95,0.00,,OVC003,0.00,VWS V14.01,2013-06-10 04:04:00,
2013-06-10 00:09:00,70.1,68.6,30.06,SSE,167,1.3,1.3,95,0.00,,OVC003,0.00,VWS V14.01,2013-06-10 04:09:00,
2013-06-10 00:14:00,70.1,68.6,30.05,SSE,159,2.6,5.2,95,0.00,,OVC003,0.00,VWS V14.01,2013-06-10 04:14:00,
2013-06-10 00:19:00,70.1,68.6,30.05,SSW,202,3.9,7.8,95,0.00,,OVC003,0.00,VWS V14.01,2013-06-10 04:19:00,
2013-06-10 00:24:00,70.2,68.7,30.05,South,170,0.0,6.5,95,0.00,,OVC003,0.00,VWS V14.01,2013-06-10 04:24:00,
2013-06-10 00:29:00,70.1,68.6,30.05,SSE,148,0.0,6.5,95,0.00,,OVC003,0.00,VWS V14.01,2013-06-10 04:29:00,
2013-06-10 00:34:00,70.1,68.6,30.05,ESE,113,1.3,6.5,95,0.00,,OVC003,0.00,VWS V14.01,2013-06-10 04:34:00,
2013-06-10 00:39:00,70.2,68.7,30.04,South,191,1.3,3.9,95,0.00,,OVC003,0.00,VWS V14.01,2013-06-10 04:39:00,
2013-06-10 00:44:00,70.1,68.6,30.04,South,190,0.0,2.6,95,0.00,,OVC003,0.00,VWS V14.01,2013-06-10 04:44:00,
2013-06-10 00:49:00,70.1,68.6,30.04,South,175,2.6,3.9,95,0.00,,OVC003,0.00,VWS V14.01,2013-06-10 04:49:00,
2013-06-10 00:54:00,70.1,68.6,30.04,South,184,9.1,10.4,95,0.00,,OVC003,0.00,VWS V14.01,2013-06-10 04:54:00,
2013-06-10 00:59:00,70.1,68.6,30.04,WSW,252,3.9,9.1,95,0.00,,OVC003,0.00,VWS V14.01,2013-06-10 04:59:00,
2013-06-10 01:04:00,70.1,68.6,30.04,SSE,150,2.6,6.5,95,0.00,,OVC003,0.00,VWS V14.01,2013-06-10 05:04:00,
2013-06-10 01:09:00,70.1,68.6,30.04,SW,224,5.2,9.1,95,0.00,,OVC003,0.00,VWS V14.01,2013-06-10 05:09:00,
2013-06-10 01:14:00,70.1,68.6,30.04,SSW,199,3.9,6.5,95,0.00,,OVC003,0.00,VWS V14.01,2013-06-10 05:14:00,
2013-06-10 01:19:00,70.1,68.6,30.04,SSW,203,5.2,7.8,95,0.00,,OVC003,0.00,VWS V14.01,2013-06-10 05:19:00,
2013-06-10 01:24:00,70.1,68.6,30.04,SSE,163,2.6,6.5,95,0.00,,OVC003,0.00,VWS V14.01,2013-06-10 05:24:00,
2013-06-10 01:29:00,70.1,68.6,30.03,SSE,153,2.6,10.4,95,0.00,, +RA,0.00,VWS V14.01,2013-06-10 05:29:00,
2013-06-10 01:34:00,70.1,68.6,30.03,SSW,208,1.3,7.8,95,0.00,, +RA,0.00,VWS V14.01,2013-06-10 05:34:00,
2013-06-10 01:39:00,70.2,68.7,30.03,SSW,206,3.9,10.4,95,0.00,,-RA,0.00,VWS V14.01,2013-06-10 05:39:00,
2013-06-10 01:44:00,70.2,68.7,30.03,SE,141,2.6,5.2,95,0.00,,-RA,0.00,VWS V14.01,2013-06-10 05:44:00,
2013-06-10 01:49:00,70.2,68.7,30.03,SSW,194,3.9,7.8,95,0.00,,-RA,0.00,VWS V14.01,2013-06-10 05:49:00,
2013-06-10 01:54:00,70.3,68.8,30.03,South,180,1.3,5.2,95,0.00,,-RA,0.00,VWS V14.01,2013-06-10 05:54:00,
2013-06-10 02:00:00,70.3,68.8,30.03,SSW,193,2.6,6.5,95,0.00,,-RA,0.00,VWS V14.01,2013-06-10 06:00:00,
2013-06-10 02:05:00,70.3,68.8,30.03,South,173,0.0,6.5,95,0.00,,OVC003,0.00,VWS V14.01,2013-06-10 06:05:00,
2013-06-10 02:10:00,70.4,68.9,30.02,SW,219,2.6,9.1,95,0.00,,OVC003,0.00,VWS V14.01,2013-06-10 06:10:00,
2013-06-10 02:15:00,70.3,68.8,30.02,South,184,1.3,11.7,95,0.00,,OVC005,0.00,VWS V14.01,2013-06-10 06:15:00,
2013-06-10 02:20:00,70.3,68.8,30.02,SW,220,3.9,6.5,95,0.00,,OVC005,0.00,VWS V14.01,2013-06-10 06:20:00,
2013-06-10 02:25:00,70.3,68.8,30.02,SE,144,5.2,7.8,95,0.00,,OVC005,0.00,VWS V14.01,2013-06-10 06:25:00,
2013-06-10 02:30:00,70.3,68.8,30.02,SE,132,11.7,14.3,95,0.00,,OVC005,0.00,VWS V14.01,2013-06-10 06:30:00,
2013-06-10 02:35:00,70.3,68.8,30.02,SSW,194,2.6,6.5,95,0.00,,OVC005,0.00,VWS V14.01,2013-06-10 06:35:00,
2013-06-10 02:40:00,70.3,68.8,30.01,South,174,1.3,5.2,95,0.00,,OVC005,0.00,VWS V14.01,2013-06-10 06:40:00,
2013-06-10 02:45:00,70.2,68.4,30.02,WSW,247,3.9,7.8,94,0.00,,OVC005,0.00,VWS V14.01,2013-06-10 06:45:00,
2013-06-10 02:50:00,70.2,68.4,30.01,South,190,1.3,5.2,94,0.00,,OVC005,0.00,VWS V14.01,2013-06-10 06:50:00,
2013-06-10 02:55:00,70.2,68.4,30.01,SW,230,3.9,5.2,94,0.00,,OVC005,0.00,VWS V14.01,2013-06-10 06:55:00,
2013-06-10 03:00:00,70.1,68.3,30.01,ESE,120,9.1,9.1,94,0.00,,OVC005,0.00,VWS V14.01,2013-06-10 07:00:00,
2013-06-10 03:05:00,70.1,68.3,30.01,SSW,192,1.3,6.5,94,0.00,,OVC009,0.00,VWS V14.01,2013-06-10 07:05:00,
2013-06-10 03:10:00,70.2,68.4,30.01,SSW,206,2.6,5.2,94,0.00,,OVC009,0.00,VWS V14.01,2013-06-10 07:10:00,
2013-06-10 03:15:00,70.1,68.3,30.01,SE,140,0.0,7.8,94,0.00,,OVC009,0.00,VWS V14.01,2013-06-10 07:15:00,
2013-06-10 03:20:00,70.2,68.4,30.01,SSW,197,1.3,6.5,94,0.00,,OVC009,0.00,VWS V14.01,2013-06-10 07:20:00,
2013-06-10 03:25:00,70.1,68.3,30.01,WSW,254,3.9,7.8,94,0.00,,OVC009,0.00,VWS V14.01,2013-06-10 07:25:00,
2013-06-10 03:30:00,70.1,68.3,30.01,SE,130,5.2,7.8,94,0.00,,OVC009,0.00,VWS V14.01,2013-06-10 07:30:00,
2013-06-10 03:35:00,70.1,68.3,30.01,SE,129,1.3,6.5,94,0.00,,OVC009,0.00,VWS V14.01,2013-06-10 07:35:00,
2013-06-10 03:40:00,70.0,68.2,30.01,SSW,207,3.9,11.7,94,0.00,,OVC009,0.00,VWS V14.01,2013-06-10 07:40:00,
2013-06-10 03:45:00,70.0,68.5,30.01,South,183,5.2,6.5,95,0.01,,OVC009,0.01,VWS V14.01,2013-06-10 07:45:00,
2013-06-10 03:50:00,70.0,68.5,30.01,SSE,154,2.6,5.2,95,0.01,,OVC009,0.01,VWS V14.01,2013-06-10 07:50:00,
2013-06-10 03:55:00,70.0,68.5,30.01,SW,221,3.9,11.7,95,0.01,,OVC009,0.01,VWS V14.01,2013-06-10 07:55:00,
2013-06-10 04:00:00,70.1,68.6,30.01,SW,224,1.3,9.1,95,0.01,,-RA,0.01,VWS V14.01,2013-06-10 08:00:00,
2013-06-10 04:06:00,70.1,68.6,30.00,South,189,2.6,5.2,95,0.01,,-RA,0.01,VWS V14.01,2013-06-10 08:06:00,
2013-06-10 04:11:00,70.2,68.7,30.01,WSW,254,3.9,3.9,95,0.01,,-RA,0.01,VWS V14.01,2013-06-10 08:11:00,
2013-06-10 04:16:00,70.2,68.7,30.01,West,269,3.9,7.8,95,0.01,,-RA,0.01,VWS V14.01,2013-06-10 08:16:00,
2013-06-10 04:21:00,70.2,68.7,30.01,South,184,5.2,9.1,95,0.05,,-RA,0.05,VWS V14.01,2013-06-10 08:21:00,
2013-06-10 04:26:00,70.3,68.8,30.00,South,183,3.9,10.4,95,0.06,,-RA,0.06,VWS V14.01,2013-06-10 08:26:00,
2013-06-10 04:31:00,70.3,68.8,30.00,SW,220,1.3,9.1,95,0.06,,-RA,0.06,VWS V14.01,2013-06-10 08:31:00,
2013-06-10 04:36:00,70.3,68.8,30.00,SSE,164,5.2,7.8,95,0.06,,-RA,0.06,VWS V14.01,2013-06-10 08:36:00,
2013-06-10 04:41:00,70.3,68.8,30.00,SSW,197,6.5,10.4,95,0.06,,-RA,0.06,VWS V14.01,2013-06-10 08:41:00,
2013-06-10 04:46:00,70.3,68.8,30.00,SW,231,2.6,11.7,95,0.06,,-RA,0.07,VWS V14.01,2013-06-10 08:46:00,
2013-06-10 04:51:00,70.3,68.8,30.00,SSW,198,2.6,7.8,95,0.06,,-RA,0.07,VWS V14.01,2013-06-10 08:51:00,
2013-06-10 04:56:00,70.3,68.8,30.00,SSW,194,3.9,10.4,95,0.06,,-RA,0.07,VWS V14.01,2013-06-10 08:56:00,
2013-06-10 05:02:00,70.3,68.8,30.00,SSW,212,2.6,11.7,95,0.06,,RA,0.07,VWS V14.01,2013-06-10 09:02:00,
2013-06-10 05:07:00,70.2,68.4,29.99,SW,215,3.9,7.8,94,0.06,,RA,0.07,VWS V14.01,2013-06-10 09:07:00,
2013-06-10 05:12:00,70.2,68.4,29.99,East,99,0.0,3.9,94,0.06,,RA,0.07,VWS V14.01,2013-06-10 09:12:00,
2013-06-10 05:17:00,70.2,68.4,30.00,SSW,213,6.5,11.7,94,0.06,,RA,0.07,VWS V14.01,2013-06-10 09:17:00,
2013-06-10 05:22:00,70.2,68.7,30.00,South,182,5.2,7.8,95,0.06,,RA,0.07,VWS V14.01,2013-06-10 09:22:00,
2013-06-10 05:27:00,70.2,68.4,30.00,SSE,163,1.3,9.1,94,0.06,,RA,0.07,VWS V14.01,2013-06-10 09:27:00,
2013-06-10 05:32:00,70.1,68.3,30.00,WNW,302,2.6,7.8,94,0.01,,RA,0.07,VWS V14.01,2013-06-10 09:32:00,
2013-06-10 05:37:00,70.1,68.3,30.00,SSW,202,3.9,13.0,94,0.01,,RA,0.07,VWS V14.01,2013-06-10 09:37:00,
2013-06-10 05:42:00,70.1,68.3,30.00,WNW,285,2.6,3.9,94,0.01,,RA,0.07,VWS V14.01,2013-06-10 09:42:00,
2013-06-10 05:47:00,70.1,68.3,30.00,SSE,167,5.2,11.7,94,0.00,,RA,0.07,VWS V14.01,2013-06-10 09:47:00,
2013-06-10 05:53:00,70.0,68.2,30.00,West,267,3.9,9.1,94,0.00,,RA,0.07,VWS V14.01,2013-06-10 09:53:00,
2013-06-10 05:58:00,70.0,68.2,30.00,WSW,249,3.9,11.7,94,0.00,,RA,0.07,VWS V14.01,2013-06-10 09:58:00,
2013-06-10 06:03:00,70.0,68.2,30.00,SSW,193,2.6,6.5,94,0.00,,OVC039,0.07,VWS V14.01,2013-06-10 10:03:00,
2013-06-10 06:08:00,69.9,68.1,30.00,SE,142,2.6,7.8,94,0.00,,OVC039,0.07,VWS V14.01,2013-06-10 10:08:00,
2013-06-10 06:13:00,69.9,68.1,30.00,SSW,192,7.8,11.7,94,0.00,,OVC039,0.07,VWS V14.01,2013-06-10 10:13:00,
2013-06-10 06:18:00,69.9,68.1,30.00,SE,134,0.0,9.1,94,0.00,,OVC039,0.07,VWS V14.01,2013-06-10 10:18:00,
2013-06-10 06:23:00,69.9,68.1,30.00,South,179,2.6,7.8,94,0.00,,OVC039,0.07,VWS V14.01,2013-06-10 10:23:00,
2013-06-10 06:28:00,69.8,68.0,30.00,ESE,105,1.3,6.5,94,0.01,,OVC039,0.08,VWS V14.01,2013-06-10 10:28:00,
2013-06-10 06:33:00,69.8,68.3,30.00,SW,225,2.6,11.7,95,0.02,,OVC039,0.09,VWS V14.01,2013-06-10 10:33:00,
2013-06-10 06:38:00,69.8,68.3,30.00,West,264,1.3,6.5,95,0.02,,OVC039,0.09,VWS V14.01,2013-06-10 10:38:00,
2013-06-10 06:43:00,69.8,68.3,30.00,SSW,203,2.6,5.2,95,0.03,,OVC039,0.10,VWS V14.01,2013-06-10 10:43:00,
2013-06-10 06:48:00,69.8,68.3,30.00,SSW,210,3.9,5.2,95,0.08,,OVC039,0.15,VWS V14.01,2013-06-10 10:48:00,
2013-06-10 06:53:00,69.7,68.2,30.00,SW,215,6.5,11.7,95,0.11,,OVC039,0.18,VWS V14.01,2013-06-10 10:53:00,
2013-06-10 06:58:00,69.7,68.2,30.00,SSW,197,0.0,2.6,95,0.16,,OVC039,0.23,VWS V14.01,2013-06-10 10:58:00,
2013-06-10 07:03:00,69.7,68.2,30.00,West,272,0.0,3.9,95,0.16,,OVC012,0.23,VWS V14.01,2013-06-10 11:03:00,
2013-06-10 07:09:00,69.7,68.2,30.00,SW,234,0.0,5.2,95,0.16,,OVC012,0.23,VWS V14.01,2013-06-10 11:09:00,
2013-06-10 07:14:00,69.7,68.2,30.00,South,186,9.1,10.4,95,0.16,,OVC012,0.23,VWS V14.01,2013-06-10 11:14:00,
2013-06-10 07:19:00,69.8,68.3,30.00,SSW,196,1.3,10.4,95,0.16,,OVC012,0.23,VWS V14.01,2013-06-10 11:19:00,
2013-06-10 07:24:00,69.8,68.3,30.00,West,267,2.6,7.8,95,0.16,,OVC012,0.23,VWS V14.01,2013-06-10 11:24:00,
2013-06-10 07:29:00,69.9,68.4,30.00,SW,223,7.8,9.1,95,0.16,,OVC012,0.23,VWS V14.01,2013-06-10 11:29:00,
2013-06-10 07:34:00,69.9,68.4,30.00,SW,219,3.9,7.8,95,0.15,,OVC012,0.23,VWS V14.01,2013-06-10 11:34:00,
2013-06-10 07:39:00,69.9,68.4,30.00,SSE,157,7.8,11.7,95,0.15,,OVC012,0.23,VWS V14.01,2013-06-10 11:39:00,
2013-06-10 07:44:00,70.0,68.5,30.00,WSW,237,5.2,10.4,95,0.16,,OVC012,0.24,VWS V14.01,2013-06-10 11:44:00,
2013-06-10 07:49:00,70.1,68.6,30.00,SSW,209,3.9,14.3,95,0.14,,OVC012,0.25,VWS V14.01,2013-06-10 11:49:00,
2013-06-10 07:54:00,70.1,68.6,30.00,South,191,3.9,10.4,95,0.15,,OVC012,0.26,VWS V14.01,2013-06-10 11:54:00,
2013-06-10 07:59:00,70.2,68.7,30.00,SW,235,5.2,9.1,95,0.16,,OVC012,0.27,VWS V14.01,2013-06-10 11:59:00,
2013-06-10 08:04:00,70.2,68.7,30.00,SW,221,13.0,13.0,95,0.08,,OVC006,0.31,VWS V14.01,2013-06-10 12:04:00,
2013-06-10 08:09:00,70.2,68.7,30.00,West,278,5.2,11.7,95,0.16,,OVC006,0.39,VWS V14.01,2013-06-10 12:09:00,
2013-06-10 08:14:00,70.2,68.7,30.00,South,180,0.0,3.9,95,0.23,,OVC006,0.46,VWS V14.01,2013-06-10 12:14:00,
2013-06-10 08:19:00,70.1,68.6,30.00,South,175,5.2,9.1,95,0.29,,-RA,0.52,VWS V14.01,2013-06-10 12:19:00,
2013-06-10 08:24:00,70.1,68.6,30.00,SSW,207,1.3,7.8,95,0.34,,,0.57,VWS V14.01,2013-06-10 12:24:00,
2013-06-10 08:29:00,70.2,68.7,30.00,SW,217,1.3,9.1,95,0.38,,,0.61,VWS V14.01,2013-06-10 12:29:00,
2013-06-10 08:34:00,70.2,68.7,30.00,WSW,238,6.5,6.5,95,0.39,,,0.62,VWS V14.01,2013-06-10 12:34:00,
2013-06-10 08:39:00,70.2,68.7,30.00,SSE,163,2.6,9.1,95,0.44,,,0.67,VWS V14.01,2013-06-10 12:39:00,
2013-06-10 08:44:00,70.2,68.7,30.00,SSW,209,3.9,7.8,95,0.45,,,0.69,VWS V14.01,2013-06-10 12:44:00,
2013-06-10 08:50:00,70.2,68.7,30.01,SE,139,5.2,9.1,95,0.46,,,0.70,VWS V14.01,2013-06-10 12:50:00,
2013-06-10 08:55:00,70.3,68.8,30.01,SW,214,2.6,7.8,95,0.47,,,0.71,VWS V14.01,2013-06-10 12:55:00,
2013-06-10 09:00:00,70.6,69.1,30.01,SW,215,10.4,14.3,95,0.44,,,0.71,VWS V14.01,2013-06-10 13:00:00,
2013-06-10 09:05:00,70.7,69.2,30.01,SSW,206,10.4,13.0,95,0.44,,OVC010,0.71,VWS V14.01,2013-06-10 13:05:00,
2013-06-10 09:10:00,70.8,69.3,30.01,SSW,203,6.5,6.5,95,0.44,,OVC010,0.71,VWS V14.01,2013-06-10 13:10:00,
2013-06-10 09:15:00,70.8,69.3,30.01,SW,220,11.7,14.3,95,0.25,,OVC010,0.71,VWS V14.01,2013-06-10 13:15:00,
2013-06-10 09:20:00,70.9,69.4,30.01,SW,232,3.9,10.4,95,0.25,,OVC010,0.71,VWS V14.01,2013-06-10 13:20:00,
2013-06-10 09:25:00,71.1,69.6,30.01,SSE,165,9.1,9.1,95,0.25,,OVC010,0.71,VWS V14.01,2013-06-10 13:25:00,
2013-06-10 09:30:00,71.2,69.7,30.01,West,262,9.1,13.0,95,0.10,,OVC010,0.71,VWS V14.01,2013-06-10 13:30:00,
2013-06-10 09:35:00,71.4,69.9,30.01,WSW,255,9.1,13.0,95,0.10,,OVC010,0.71,VWS V14.01,2013-06-10 13:35:00,
2013-06-10 09:40:00,71.6,69.8,30.00,SSE,167,7.8,13.0,94,0.10,,OVC010,0.71,VWS V14.01,2013-06-10 13:40:00,
2013-06-10 09:45:00,71.9,70.1,30.00,WSW,250,2.6,14.3,94,0.02,,OVC010,0.71,VWS V14.01,2013-06-10 13:45:00,
2013-06-10 09:50:00,72.3,70.2,30.00,WSW,255,6.5,11.7,93,0.02,,OVC010,0.71,VWS V14.01,2013-06-10 13:50:00,
2013-06-10 09:55:00,72.2,70.1,30.00,WSW,257,6.5,13.0,93,0.02,,OVC010,0.71,VWS V14.01,2013-06-10 13:55:00,
2013-06-10 10:00:00,72.1,70.0,30.00,South,172,1.3,13.0,93,0.00,,OVC015,0.71,VWS V14.01,2013-06-10 14:00:00,
2013-06-10 10:05:00,72.0,69.6,30.00,WSW,252,2.6,16.9,92,0.00,,OVC015,0.71,VWS V14.01,2013-06-10 14:05:00,
2013-06-10 10:10:00,72.0,69.6,30.00,SW,225,3.9,13.0,92,0.00,,OVC015,0.71,VWS V14.01,2013-06-10 14:10:00,
2013-06-10 10:15:00,72.3,69.8,30.00,SW,227,3.9,16.9,92,0.00,,OVC015,0.71,VWS V14.01,2013-06-10 14:15:00,
2013-06-10 10:20:00,72.7,70.2,30.00,WSW,252,9.1,13.0,92,0.00,,OVC015,0.71,VWS V14.01,2013-06-10 14:20:00,
2013-06-10 10:26:00,73.0,70.5,30.00,NNW,329,5.2,7.8,92,0.00,,OVC015,0.71,VWS V14.01,2013-06-10 14:26:00,
2013-06-10 10:31:00,73.2,70.7,30.00,West,280,5.2,10.4,92,0.00,,OVC015,0.71,VWS V14.01,2013-06-10 14:31:00,
2013-06-10 10:36:00,73.4,70.6,30.00,South,185,11.7,13.0,91,0.00,,OVC015,0.71,VWS V14.01,2013-06-10 14:36:00,
2013-06-10 10:41:00,73.4,70.6,30.00,WSW,237,5.2,6.5,91,0.00,,OVC015,0.71,VWS V14.01,2013-06-10 14:41:00,
2013-06-10 10:46:00,73.2,70.4,30.00,WSW,242,6.5,10.4,91,0.00,,OVC015,0.71,VWS V14.01,2013-06-10 14:46:00,
2013-06-10 10:51:00,73.3,70.5,30.00,South,182,5.2,9.1,91,0.00,,OVC015,0.71,VWS V14.01,2013-06-10 14:51:00,
2013-06-10 10:56:00,73.0,70.2,30.00,South,187,2.6,5.2,91,0.01,,OVC015,0.72,VWS V14.01,2013-06-10 14:56:00,
2013-06-10 11:01:00,72.7,69.9,29.99,South,181,7.8,13.0,91,0.02,,OVC029,0.73,VWS V14.01,2013-06-10 15:01:00,
2013-06-10 11:06:00,72.4,69.9,30.00,WSW,257,9.1,9.1,92,0.02,,OVC029,0.73,VWS V14.01,2013-06-10 15:06:00,
2013-06-10 11:11:00,72.3,69.8,30.00,SSW,202,7.8,9.1,92,0.02,,OVC029,0.73,VWS V14.01,2013-06-10 15:11:00,
2013-06-10 11:16:00,72.1,69.7,29.99,SW,232,2.6,6.5,92,0.02,,OVC029,0.73,VWS V14.01,2013-06-10 15:16:00,
2013-06-10 11:21:00,72.1,69.7,29.99,SSW,199,1.3,11.7,92,0.02,,OVC037,0.73,VWS V14.01,2013-06-10 15:21:00,
2013-06-10 11:26:00,72.2,69.8,29.99,South,182,3.9,13.0,92,0.02,,OVC037,0.73,VWS V14.01,2013-06-10 15:26:00,
2013-06-10 11:31:00,72.5,70.1,29.99,SW,234,1.3,7.8,92,0.02,,OVC037,0.73,VWS V14.01,2013-06-10 15:31:00,
2013-06-10 11:36:00,72.8,70.0,29.99,SW,220,7.8,15.6,91,0.02,,OVC037,0.73,VWS V14.01,2013-06-10 15:36:00,
2013-06-10 11:41:00,73.2,70.7,29.99,SW,231,2.6,10.4,92,0.02,,OVC037,0.73,VWS V14.01,2013-06-10 15:41:00,
2013-06-10 11:46:00,73.8,71.0,29.99,SSW,207,2.6,14.3,91,0.02,,OVC037,0.73,VWS V14.01,2013-06-10 15:46:00,
2013-06-10 11:51:00,74.1,71.0,29.98,West,261,10.4,16.9,90,0.02,,OVC037,0.73,VWS V14.01,2013-06-10 15:51:00,
2013-06-10 11:56:00,74.7,70.9,29.99,West,261,5.2,18.2,88,0.02,,OVC037,0.73,VWS V14.01,2013-06-10 15:56:00,
2013-06-10 12:01:00,74.9,71.1,29.98,SW,214,5.2,15.6,88,0.00,,BKN022,0.73,VWS V14.01,2013-06-10 16:01:00,
2013-06-10 12:06:00,75.4,71.6,29.98,SSW,194,7.8,11.7,88,0.00,,BKN022,0.73,VWS V14.01,2013-06-10 16:06:00,
2013-06-10 12:13:00,75.3,71.2,29.98,West,278,7.8,19.5,87,0.00,,BKN022,0.73,VWS V14.01,2013-06-10 16:13:00,
2013-06-10 12:18:00,75.2,71.1,29.98,SSE,147,6.5,18.2,87,0.00,,BKN022,0.73,VWS V14.01,2013-06-10 16:18:00,
2013-06-10 12:23:00,74.7,70.9,29.98,West,261,10.4,14.3,88,0.01,,BKN022,0.74,VWS V14.01,2013-06-10 16:23:00,
2013-06-10 12:28:00,73.7,70.6,29.98,SSE,153,3.9,13.0,90,0.02,,BKN022,0.75,VWS V14.01,2013-06-10 16:28:00,
2013-06-10 12:33:00,73.5,70.7,29.98,WSW,250,5.2,14.3,91,0.02,,BKN022,0.75,VWS V14.01,2013-06-10 16:33:00,
2013-06-10 12:38:00,74.0,71.5,29.98,SSW,206,15.6,15.6,92,0.02,,BKN022,0.75,VWS V14.01,2013-06-10 16:38:00,
2013-06-10 12:43:00,74.7,71.9,29.98,SSW,198,2.6,13.0,91,0.02,,BKN022,0.75,VWS V14.01,2013-06-10 16:43:00,
2013-06-10 12:48:00,75.2,72.1,29.98,WSW,243,7.8,14.3,90,0.02,,BKN022,0.75,VWS V14.01,2013-06-10 16:48:00,
2013-06-10 12:53:00,75.3,71.8,29.98,SE,141,1.3,10.4,89,0.02,,BKN022,0.75,VWS V14.01,2013-06-10 16:53:00,
2013-06-10 12:58:00,75.2,71.4,29.98,WNW,282,10.4,14.3,88,0.02,,BKN022,0.75,VWS V14.01,2013-06-10 16:58:00,
2013-06-10 13:03:00,74.9,71.1,29.98,SW,221,6.5,23.4,88,0.02,,OVC041,0.75,VWS V14.01,2013-06-10 17:03:00,
2013-06-10 13:08:00,74.8,71.0,29.98,West,259,5.2,11.7,88,0.02,,OVC041,0.75,VWS V14.01,2013-06-10 17:08:00,
2013-06-10 13:13:00,74.9,71.1,29.99,SW,226,13.0,14.3,88,0.02,,OVC041,0.75,VWS V14.01,2013-06-10 17:13:00,
2013-06-10 13:18:00,72.5,67.4,29.99,NW,324,10.4,14.3,84,0.08,,OVC041,0.81,VWS V14.01,2013-06-10 17:18:00,
2013-06-10 13:23:00,70.4,66.3,29.99,NNE,13,2.6,15.6,87,0.10,,OVC041,0.83,VWS V14.01,2013-06-10 17:23:00,
2013-06-10 13:28:00,69.2,65.8,29.98,ESE,111,3.9,5.2,89,0.13,,OVC041,0.86,VWS V14.01,2013-06-10 17:28:00,
2013-06-10 13:33:00,68.6,65.9,29.96,ESE,123,1.3,6.5,91,0.12,,OVC041,0.87,VWS V14.01,2013-06-10 17:33:00,
2013-06-10 13:38:00,68.5,65.8,29.96,WSW,250,2.6,5.2,91,0.12,,OVC041,0.87,VWS V14.01,2013-06-10 17:38:00,
2013-06-10 13:43:00,68.6,65.9,29.96,SSW,205,7.8,7.8,91,0.12,,RA,0.87,VWS V14.01,2013-06-10 17:43:00,
2013-06-10 13:49:00,68.9,66.2,29.96,SW,232,5.2,6.5,91,0.12,, +RA,0.87,VWS V14.01,2013-06-10 17:49:00,
2013-06-10 13:54:00,69.4,66.3,29.96,WSW,250,5.2,11.7,90,0.12,,OVC070,0.87,VWS V14.01,2013-06-10 17:54:00,
2013-06-10 13:59:00,70.0,67.3,29.97,South,169,6.5,7.8,91,0.12,,OVC070,0.87,VWS V14.01,2013-06-10 17:59:00,
2013-06-10 14:04:00,70.6,67.8,29.98,West,267,5.2,9.1,91,0.12,,OVC110,0.87,VWS V14.01,2013-06-10 18:04:00,
2013-06-10 14:09:00,71.0,67.6,29.98,SSW,202,3.9,10.4,89,0.12,,OVC110,0.87,VWS V14.01,2013-06-10 18:09:00,
2013-06-10 14:14:00,70.7,66.7,29.99,WSW,252,5.2,11.7,87,0.12,,OVC110,0.87,VWS V14.01,2013-06-10 18:14:00,
2013-06-10 14:19:00,70.7,67.3,29.98,SW,236,0.0,10.4,89,0.12,,OVC095,0.87,VWS V14.01,2013-06-10 18:19:00,
2013-06-10 14:24:00,71.3,67.9,29.98,SW,220,3.9,10.4,89,0.12,,OVC095,0.87,VWS V14.01,2013-06-10 18:24:00,
2013-06-10 14:29:00,72.1,68.3,29.98,SW,236,3.9,11.7,88,0.00,,OVC095,0.87,VWS V14.01,2013-06-10 18:29:00,
2013-06-10 14:34:00,72.3,68.2,29.98,SSE,157,3.9,14.3,87,0.00,,OVC095,0.87,VWS V14.01,2013-06-10 18:34:00,
2013-06-10 14:39:00,72.6,68.8,29.97,SW,219,5.2,11.7,88,0.00,,OVC095,0.87,VWS V14.01,2013-06-10 18:39:00,
2013-06-10 14:44:00,72.8,68.7,29.97,SW,222,2.6,14.3,87,0.00,,OVC095,0.87,VWS V14.01,2013-06-10 18:44:00,
2013-06-10 14:50:00,73.1,68.3,29.97,SSW,194,6.5,14.3,85,0.00,,OVC095,0.87,VWS V14.01,2013-06-10 18:50:00,
2013-06-10 14:55:00,73.1,68.3,29.97,South,171,5.2,15.6,85,0.00,,OVC095,0.87,VWS V14.01,2013-06-10 18:55:00,
2013-06-10 15:00:00,73.3,68.5,29.96,West,265,7.8,11.7,85,0.00,,OVC095,0.87,VWS V14.01,2013-06-10 19:00:00,
2013-06-10 15:05:00,73.5,68.4,29.96,WSW,243,15.6,15.6,84,0.00,,FEW011,0.87,VWS V14.01,2013-06-10 19:05:00,
2013-06-10 15:10:00,73.7,68.9,29.96,SSW,205,5.2,11.7,85,0.00,,FEW011,0.87,VWS V14.01,2013-06-10 19:10:00,
2013-06-10 15:15:00,73.4,68.3,29.96,SW,216,9.1,15.6,84,0.00,,FEW011,0.87,VWS V14.01,2013-06-10 19:15:00,
2013-06-10 15:20:00,73.7,68.6,29.96,West,259,7.8,14.3,84,0.00,,FEW011,0.87,VWS V14.01,2013-06-10 19:20:00,
2013-06-10 15:25:00,74.1,69.0,29.96,WNW,285,3.9,11.7,84,0.00,,FEW011,0.87,VWS V14.01,2013-06-10 19:25:00,
2013-06-10 15:30:00,74.4,68.9,29.96,SW,220,11.7,18.2,83,0.00,,FEW011,0.87,VWS V14.01,2013-06-10 19:30:00,
2013-06-10 15:35:00,74.6,69.1,29.96,WNW,288,10.4,13.0,83,0.00,,FEW011,0.87,VWS V14.01,2013-06-10 19:35:00,
2013-06-10 15:40:00,74.4,68.6,29.95,SSW,205,11.7,13.0,82,0.00,,FEW011,0.87,VWS V14.01,2013-06-10 19:40:00,
2013-06-10 15:45:00,74.9,69.4,29.95,WSW,256,5.2,11.7,83,0.00,,FEW011,0.87,VWS V14.01,2013-06-10 19:45:00,
2013-06-10 15:50:00,75.3,69.4,29.95,WSW,252,6.5,14.3,82,0.00,,FEW011,0.87,VWS V14.01,2013-06-10 19:50:00,
2013-06-10 15:55:00,75.7,69.5,29.95,WSW,248,5.2,10.4,81,0.00,,FEW011,0.87,VWS V14.01,2013-06-10 19:55:00,
2013-06-10 16:00:00,75.6,69.7,29.94,South,182,1.3,6.5,82,0.00,,CLR,0.87,VWS V14.01,2013-06-10 20:00:00,
2013-06-10 16:06:00,75.8,69.6,29.94,WSW,254,9.1,11.7,81,0.00,,CLR,0.87,VWS V14.01,2013-06-10 20:06:00,
2013-06-10 16:11:00,76.2,69.2,29.94,South,184,7.8,13.0,79,0.00,,CLR,0.87,VWS V14.01,2013-06-10 20:11:00,
2013-06-10 16:16:00,76.5,69.5,29.94,SW,227,5.2,11.7,79,0.00,,CLR,0.87,VWS V14.01,2013-06-10 20:16:00,
2013-06-10 16:21:00,76.5,69.9,29.94,SW,225,3.9,5.2,80,0.00,,CLR,0.87,VWS V14.01,2013-06-10 20:21:00,
2013-06-10 16:26:00,76.5,68.8,29.94,SSW,213,6.5,14.3,77,0.00,,CLR,0.87,VWS V14.01,2013-06-10 20:26:00,
2013-06-10 16:31:00,76.2,69.2,29.93,WNW,295,5.2,11.7,79,0.00,,CLR,0.87,VWS V14.01,2013-06-10 20:31:00,
2013-06-10 16:36:00,76.0,68.7,29.93,SW,223,2.6,10.4,78,0.00,,CLR,0.87,VWS V14.01,2013-06-10 20:36:00,
2013-06-10 16:41:00,76.0,69.0,29.93,WSW,244,5.2,10.4,79,0.00,,CLR,0.87,VWS V14.01,2013-06-10 20:41:00,
2013-06-10 16:46:00,76.0,69.4,29.93,SSW,200,10.4,10.4,80,0.00,,CLR,0.87,VWS V14.01,2013-06-10 20:46:00,
2013-06-10 16:52:00,76.1,69.5,29.93,SW,226,9.1,9.1,80,0.00,,CLR,0.87,VWS V14.01,2013-06-10 20:52:00,
2013-06-10 16:57:00,76.6,70.0,29.92,South,169,6.5,10.4,80,0.00,,CLR,0.87,VWS V14.01,2013-06-10 20:57:00,
2013-06-10 17:02:00,76.8,69.4,29.92,SSW,198,3.9,10.4,78,0.00,,CLR,0.87,VWS V14.01,2013-06-10 21:02:00,
2013-06-10 17:08:00,76.4,69.4,29.93,SSE,164,7.8,10.4,79,0.00,,CLR,0.87,VWS V14.01,2013-06-10 21:08:00,
2013-06-10 17:13:00,76.0,69.4,29.93,WSW,240,2.6,11.7,80,0.00,,CLR,0.87,VWS V14.01,2013-06-10 21:13:00,
2013-06-10 17:18:00,75.8,69.6,29.93,SW,220,0.0,9.1,81,0.00,,CLR,0.87,VWS V14.01,2013-06-10 21:18:00,
2013-06-10 17:23:00,75.7,69.8,29.93,West,267,3.9,6.5,82,0.00,,CLR,0.87,VWS V14.01,2013-06-10 21:23:00,
2013-06-10 17:28:00,75.8,69.9,29.93,West,271,2.6,7.8,82,0.00,,CLR,0.87,VWS V14.01,2013-06-10 21:28:00,
2013-06-10 17:33:00,75.6,69.4,29.94,SW,227,1.3,11.7,81,0.00,,CLR,0.87,VWS V14.01,2013-06-10 21:33:00,
2013-06-10 17:38:00,75.6,69.4,29.93,WSW,242,10.4,14.3,81,0.00,,CLR,0.87,VWS V14.01,2013-06-10 21:38:00,
2013-06-10 17:43:00,75.4,69.5,29.93,WSW,237,5.2,9.1,82,0.00,,CLR,0.87,VWS V14.01,2013-06-10 21:43:00,
2013-06-10 17:48:00,75.4,69.5,29.93,West,279,7.8,11.7,82,0.00,,CLR,0.87,VWS V14.01,2013-06-10 21:48:00,
2013-06-10 17:53:00,75.4,69.5,29.93,West,273,2.6,9.1,82,0.00,,CLR,0.87,VWS V14.01,2013-06-10 21:53:00,
2013-06-10 17:58:00,75.3,69.8,29.93,SSW,209,6.5,13.0,83,0.00,,CLR,0.87,VWS V14.01,2013-06-10 21:58:00,
2013-06-10 18:03:00,75.3,69.8,29.93,SSW,204,6.5,7.8,83,0.00,,CLR,0.87,VWS V14.01,2013-06-10 22:03:00,
2013-06-10 18:08:00,75.2,69.7,29.93,WSW,246,11.7,13.0,83,0.00,,CLR,0.87,VWS V14.01,2013-06-10 22:08:00,
2013-06-10 18:13:00,75.0,69.5,29.93,SSW,207,9.1,11.7,83,0.00,,CLR,0.87,VWS V14.01,2013-06-10 22:13:00,
2013-06-10 18:18:00,74.8,69.7,29.93,WSW,248,3.9,11.7,84,0.00,,CLR,0.87,VWS V14.01,2013-06-10 22:18:00,
2013-06-10 18:23:00,74.8,69.7,29.93,WSW,242,1.3,6.5,84,0.00,,CLR,0.87,VWS V14.01,2013-06-10 22:23:00,
2013-06-10 18:28:00,74.8,69.7,29.93,SW,227,5.2,5.2,84,0.00,,CLR,0.87,VWS V14.01,2013-06-10 22:28:00,
2013-06-10 18:34:00,74.9,69.7,29.93,SW,225,5.2,9.1,84,0.00,,CLR,0.87,VWS V14.01,2013-06-10 22:34:00,
2013-06-10 18:39:00,74.9,69.7,29.93,SW,235,6.5,6.5,84,0.00,,CLR,0.87,VWS V14.01,2013-06-10 22:39:00,
2013-06-10 18:44:00,74.8,69.7,29.93,WSW,246,10.4,15.6,84,0.00,,CLR,0.87,VWS V14.01,2013-06-10 22:44:00,
2013-06-10 18:49:00,74.7,69.6,29.93,South,181,7.8,15.6,84,0.00,,CLR,0.87,VWS V14.01,2013-06-10 22:49:00,
2013-06-10 18:54:00,74.6,69.8,29.93,WSW,242,7.8,10.4,85,0.00,,CLR,0.87,VWS V14.01,2013-06-10 22:54:00,
2013-06-10 18:59:00,74.4,69.6,29.93,WSW,238,6.5,7.8,85,0.00,,CLR,0.87,VWS V14.01,2013-06-10 22:59:00,
2013-06-10 19:04:00,74.4,69.6,29.94,SW,232,7.8,11.7,85,0.00,,FEW120,0.87,VWS V14.01,2013-06-10 23:04:00,
2013-06-10 19:09:00,74.3,69.5,29.93,SSW,194,5.2,9.1,85,0.00,,FEW120,0.87,VWS V14.01,2013-06-10 23:09:00,
2013-06-10 19:14:00,74.3,69.5,29.93,WSW,250,3.9,11.7,85,0.00,,FEW120,0.87,VWS V14.01,2013-06-10 23:14:00,
2013-06-10 19:19:00,74.3,69.8,29.93,SW,235,5.2,13.0,86,0.00,,FEW120,0.87,VWS V14.01,2013-06-10 23:19:00,
2013-06-10 19:24:00,74.5,70.0,29.92,SSW,207,2.6,5.2,86,0.00,,FEW120,0.87,VWS V14.01,2013-06-10 23:24:00,
2013-06-10 19:29:00,74.5,70.0,29.92,WSW,245,5.2,11.7,86,0.00,,FEW120,0.87,VWS V14.01,2013-06-10 23:29:00,
2013-06-10 19:34:00,74.5,69.7,29.92,West,261,5.2,9.1,85,0.00,,FEW120,0.87,VWS V14.01,2013-06-10 23:34:00,
2013-06-10 19:39:00,74.7,69.9,29.92,SW,217,9.1,11.7,85,0.00,,FEW120,0.87,VWS V14.01,2013-06-10 23:39:00,
2013-06-10 19:44:00,74.8,70.0,29.92,SSW,213,1.3,11.7,85,0.00,,FEW120,0.87,VWS V14.01,2013-06-10 23:44:00,
2013-06-10 19:49:00,74.5,69.7,29.92,WSW,247,6.5,13.0,85,0.00,,FEW120,0.87,VWS V14.01,2013-06-10 23:49:00,
2013-06-10 19:54:00,74.2,69.8,29.92,SW,220,5.2,11.7,86,0.00,,FEW120,0.87,VWS V14.01,2013-06-10 23:54:00,
2013-06-10 19:59:00,73.9,69.4,29.92,WSW,238,5.2,9.1,86,0.00,,FEW120,0.87,VWS V14.01,2013-06-10 23:59:00,
2013-06-10 20:05:00,73.6,69.5,29.91,WSW,251,3.9,9.1,87,0.00,,CLR,0.87,VWS V14.01,2013-06-11 00:05:00,
2013-06-10 20:10:00,73.5,69.4,29.91,WNW,284,7.8,10.4,87,0.00,,CLR,0.87,VWS V14.01,2013-06-11 00:10:00,
2013-06-10 20:15:00,73.3,69.2,29.92,West,272,9.1,11.7,87,0.00,,CLR,0.87,VWS V14.01,2013-06-11 00:15:00,
2013-06-10 20:20:00,73.1,69.0,29.92,SW,224,7.8,10.4,87,0.00,,CLR,0.87,VWS V14.01,2013-06-11 00:20:00,
2013-06-10 20:25:00,72.9,69.1,29.92,West,277,3.9,15.6,88,0.00,,CLR,0.87,VWS V14.01,2013-06-11 00:25:00,
2013-06-10 20:30:00,72.8,69.0,29.92,West,269,3.9,9.1,88,0.00,,CLR,0.87,VWS V14.01,2013-06-11 00:30:00,
2013-06-10 20:35:00,72.6,69.2,29.93,SW,236,6.5,10.4,89,0.00,,CLR,0.87,VWS V14.01,2013-06-11 00:35:00,
2013-06-10 20:40:00,72.5,69.1,29.93,WSW,244,3.9,11.7,89,0.00,,CLR,0.87,VWS V14.01,2013-06-11 00:40:00,
2013-06-10 20:45:00,72.4,69.0,29.93,WSW,253,3.9,9.1,89,0.00,,CLR,0.87,VWS V14.01,2013-06-11 00:45:00,
2013-06-10 20:50:00,72.3,69.2,29.93,SW,227,6.5,7.8,90,0.00,,CLR,0.87,VWS V14.01,2013-06-11 00:50:00,
2013-06-10 20:55:00,72.1,69.0,29.93,WNW,296,2.6,5.2,90,0.00,,CLR,0.87,VWS V14.01,2013-06-11 00:55:00,
2013-06-10 21:00:00,72.0,68.9,29.93,WSW,249,1.3,6.5,90,0.00,,FEW017,0.87,VWS V14.01,2013-06-11 01:00:00,
2013-06-10 21:05:00,72.0,68.9,29.93,SSW,196,1.3,5.2,90,0.00,,FEW017,0.87,VWS V14.01,2013-06-11 01:05:00,
2013-06-10 21:10:00,71.9,68.8,29.94,WSW,237,5.2,7.8,90,0.00,,FEW017,0.87,VWS V14.01,2013-06-11 01:10:00,
2013-06-10 21:15:00,71.8,68.7,29.94,SW,232,3.9,10.4,90,0.00,,FEW017,0.87,VWS V14.01,2013-06-11 01:15:00,
2013-06-10 21:21:00,71.7,68.9,29.94,SW,221,5.2,5.2,91,0.00,,FEW017,0.87,VWS V14.01,2013-06-11 01:21:00,
2013-06-10 21:26:00,71.6,68.8,29.94,South,182,2.6,5.2,91,0.00,,FEW017,0.87,VWS V14.01,2013-06-11 01:26:00,
2013-06-10 21:31:00,71.5,68.7,29.94,SW,224,6.5,11.7,91,0.00,,FEW017,0.87,VWS V14.01,2013-06-11 01:31:00,
2013-06-10 21:36:00,71.5,68.7,29.94,SSW,202,2.6,6.5,91,0.00,,FEW017,0.87,VWS V14.01,2013-06-11 01:36:00,
2013-06-10 21:41:00,71.5,68.7,29.95,WSW,246,1.3,13.0,91,0.00,,FEW017,0.87,VWS V14.01,2013-06-11 01:41:00,
2013-06-10 21:46:00,71.5,68.7,29.95,WSW,240,5.2,9.1,91,0.00,,FEW017,0.87,VWS V14.01,2013-06-11 01:46:00,
2013-06-10 21:51:00,71.5,68.7,29.95,SSW,197,6.5,9.1,91,0.00,,FEW017,0.87,VWS V14.01,2013-06-11 01:51:00,
2013-06-10 21:56:00,71.4,68.6,29.95,South,179,1.3,7.8,91,0.00,,FEW017,0.87,VWS V14.01,2013-06-11 01:56:00,
2013-06-10 22:01:00,71.3,68.5,29.95,SSW,205,2.6,7.8,91,0.00,,CLR,0.87,VWS V14.01,2013-06-11 02:01:00,
2013-06-10 22:06:00,71.2,68.4,29.96,West,260,10.4,10.4,91,0.00,,CLR,0.87,VWS V14.01,2013-06-11 02:06:00,
2013-06-10 22:11:00,71.1,68.3,29.96,SSW,213,1.3,5.2,91,0.00,,CLR,0.87,VWS V14.01,2013-06-11 02:11:00,
2013-06-10 22:16:00,71.0,68.2,29.97,South,178,5.2,6.5,91,0.00,,CLR,0.87,VWS V14.01,2013-06-11 02:16:00,
2013-06-10 22:22:00,71.0,68.2,29.97,West,273,2.6,5.2,91,0.00,,CLR,0.87,VWS V14.01,2013-06-11 02:22:00,
2013-06-10 22:27:00,71.0,68.2,29.97,West,261,1.3,5.2,91,0.00,,CLR,0.87,VWS V14.01,2013-06-11 02:27:00,
2013-06-10 22:32:00,70.8,68.4,29.98,SW,218,2.6,3.9,92,0.00,,CLR,0.87,VWS V14.01,2013-06-11 02:32:00,
2013-06-10 22:37:00,70.7,68.3,29.98,SSW,209,0.0,1.3,92,0.00,,CLR,0.87,VWS V14.01,2013-06-11 02:37:00,
2013-06-10 22:42:00,70.6,68.2,29.99,West,261,2.6,7.8,92,0.00,,CLR,0.87,VWS V14.01,2013-06-11 02:42:00,
2013-06-10 22:47:00,70.4,68.0,29.99,South,169,1.3,5.2,92,0.00,,CLR,0.87,VWS V14.01,2013-06-11 02:47:00,
2013-06-10 22:52:00,70.3,67.9,29.99,South,174,1.3,3.9,92,0.00,,CLR,0.87,VWS V14.01,2013-06-11 02:52:00,
2013-06-10 22:57:00,70.1,67.7,29.99,West,275,2.6,5.2,92,0.00,,CLR,0.87,VWS V14.01,2013-06-11 02:57:00,
2013-06-10 23:02:00,70.0,67.6,29.99,SW,236,2.6,5.2,92,0.00,,CLR,0.87,VWS V14.01,2013-06-11 03:02:00,
2013-06-10 23:07:00,69.9,67.5,29.99,SW,235,5.2,5.2,92,0.00,,CLR,0.87,VWS V14.01,2013-06-11 03:07:00,
2013-06-10 23:13:00,69.9,67.5,29.99,WSW,239,1.3,3.9,92,0.00,,CLR,0.87,VWS V14.01,2013-06-11 03:13:00,
2013-06-10 23:18:00,69.8,67.4,29.99,SW,224,2.6,6.5,92,0.00,,CLR,0.87,VWS V14.01,2013-06-11 03:18:00,
2013-06-10 23:23:00,69.8,67.4,29.99,SSW,207,2.6,7.8,92,0.00,,CLR,0.87,VWS V14.01,2013-06-11 03:23:00,
2013-06-10 23:28:00,69.9,67.5,29.98,WSW,248,6.5,9.1,92,0.00,,CLR,0.87,VWS V14.01,2013-06-11 03:28:00,
2013-06-10 23:33:00,69.8,67.4,29.98,SW,217,1.3,3.9,92,0.00,,CLR,0.87,VWS V14.01,2013-06-11 03:33:00,
2013-06-10 23:38:00,69.7,67.3,29.98,SW,225,1.3,9.1,92,0.00,,CLR,0.87,VWS V14.01,2013-06-11 03:38:00,
2013-06-10 23:43:00,69.6,67.2,29.99,West,277,2.6,5.2,92,0.00,,CLR,0.87,VWS V14.01,2013-06-11 03:43:00,
2013-06-10 23:48:00,69.6,67.2,29.99,SW,231,2.6,7.8,92,0.00,,CLR,0.87,VWS V14.01,2013-06-11 03:48:00,
2013-06-10 23:53:00,69.4,67.0,29.99,WSW,254,0.0,9.1,92,0.00,,CLR,0.87,VWS V14.01,2013-06-11 03:53:00,
2013-06-10 23:58:00,69.4,67.0,29.99,SW,224,2.6,3.9,92,0.00,,CLR,0.87,VWS V14.01,2013-06-11 03:58:00,